Accueil
METAR-TAF:

METAR-TAF

Aéroports :

Aéroport international de Damas

Damas, Syrie

latitude: 33-25N, longitude: 036-31E, altitude: 608 m

Observation

Le bulletin a été fait il y a 9 minutes, à 12:00 UTC
Vent calme
Température 19°C
Humidité 28%
Pression 1022 hPa
Visibilité 10 km ou plus
Quelques nuages à une hauteur de 3000 ft

METAR: OSDI 231200Z 00000KT 9999 FEW030 19/M00 Q1022

Heure: 15:09 (12:09 UTC)

Prévision

Prévision valable du 23 à 12 UTC au 24 à 18 UTC
Vent 10 kt de sud-ouest
Visibilité 10 km ou plus
Quelques nuages à une hauteur de 3000 ft
Nuages épars à une hauteur de 10000 ft
Temporairement
du 23 à 20 UTC au 24 à 10 UTC
Vent 3 kt de direction variable
Visibilité 10 km ou plus
pas de nuages en-dessous de 1500 mètres et pas de cumulonimbus.

TAF: OSDI 2312/2418 22010KT 9999 FEW030 SCT100 TEMPO 2320/2410 VRB03KT CAVOK

Observations et prévisions météorologiques de plus de 4000 aéroports (messages METAR et TAF).

Les stations disponibles sont représentées par des disques jaunes et rouges sur la carte.

Passer la souris dessus pour voir le nom de la station.

Cliquer dessus pour voir les observations et prévisions météorologiques.

Pour changer de carte: cliquez sur les boutons verts avec une croix noire pour zoomer, sur le bouton vert avec un tiret pour effectuer un zoom arrière, ou sur les flèches vertes pour les cartes adjacentes.


METAR-TAF: